createdAt,value
2019-04-27T00:02:18.098Z,1.20
2019-04-27T00:04:52.880Z,1.00
2019-04-27T00:07:22.118Z,1.20
2019-04-27T00:09:56.002Z,1.60
2019-04-27T00:12:26.496Z,1.90
2019-04-27T00:14:55.927Z,1.77
2019-04-27T00:17:45.460Z,1.93
2019-04-27T00:20:15.203Z,2.20
2019-04-27T00:22:45.570Z,2.10
2019-04-27T00:25:17.176Z,2.47
2019-04-27T00:27:45.664Z,2.47
2019-04-27T00:30:15.063Z,2.60
2019-04-27T00:32:43.457Z,2.63
2019-04-27T00:35:13.807Z,2.20
2019-04-27T00:37:44.952Z,2.20
2019-04-27T00:40:28.560Z,2.30
2019-04-27T00:42:57.058Z,2.10
2019-04-27T00:45:25.457Z,2.00
2019-04-27T00:47:59.320Z,1.83
2019-04-27T00:50:24.164Z,2.20
2019-04-27T00:52:53.178Z,1.67
2019-04-27T00:55:23.397Z,1.90
2019-04-27T00:58:14.317Z,1.80
2019-04-27T01:00:50.023Z,1.90
2019-04-27T01:03:20.423Z,2.00
2019-04-27T01:05:48.834Z,1.70
2019-04-27T01:08:17.308Z,1.90
2019-04-27T01:10:45.796Z,2.00
2019-04-27T01:13:14.257Z,2.00
2019-04-27T01:15:43.092Z,1.90
2019-04-27T01:18:15.394Z,2.13
2019-04-27T01:20:42.164Z,2.00
2019-04-27T01:23:10.800Z,1.90
2019-04-27T01:25:51.057Z,1.80
2019-04-27T01:28:28.955Z,2.00
2019-04-27T01:31:00.565Z,1.97
2019-04-27T01:33:30.338Z,2.00
2019-04-27T01:35:58.993Z,1.80
2019-04-27T01:38:29.089Z,2.13
2019-04-27T01:40:58.358Z,1.90
2019-04-27T01:43:28.512Z,1.73
2019-04-27T01:45:58.752Z,1.90
2019-04-27T01:48:30.585Z,2.03
2019-04-27T01:50:59.415Z,2.03
2019-04-27T01:53:28.580Z,2.10
2019-04-27T01:55:59.172Z,1.80
2019-04-27T01:58:29.318Z,1.70
2019-04-27T02:01:02.639Z,2.10
2019-04-27T02:03:38.792Z,1.87
2019-04-27T02:06:09.124Z,1.90
2019-04-27T02:08:37.650Z,1.90
2019-04-27T02:11:06.115Z,1.70
2019-04-27T02:13:34.522Z,1.70
2019-04-27T02:16:02.990Z,1.50
2019-04-27T02:18:37.608Z,1.60
2019-04-27T02:21:01.550Z,1.77
2019-04-27T02:23:29.948Z,1.60
2019-04-27T02:25:58.687Z,1.60
2019-04-27T02:28:29.538Z,1.70
2019-04-27T02:31:19.420Z,1.53
2019-04-27T02:33:55.955Z,1.73
2019-04-27T02:36:24.335Z,1.87
2019-04-27T02:38:52.731Z,1.80
2019-04-27T02:41:21.161Z,2.00
2019-04-27T02:43:51.199Z,1.70
2019-04-27T02:46:20.157Z,1.43
2019-04-27T02:48:59.381Z,1.57
2019-04-27T02:51:36.746Z,1.60
2019-04-27T02:54:05.194Z,1.80
2019-04-27T02:56:33.601Z,1.70
2019-04-27T02:59:02.035Z,1.80
2019-04-27T03:01:32.307Z,1.73
2019-04-27T03:04:01.071Z,1.70
2019-04-27T03:06:30.192Z,1.67
2019-04-27T03:09:00.397Z,1.87
2019-04-27T03:11:30.755Z,1.87
2019-04-27T03:14:29.409Z,1.80
2019-04-27T03:17:01.149Z,1.43
2019-04-27T03:19:40.217Z,1.63
2019-04-27T03:22:16.637Z,1.60
2019-04-27T03:24:53.601Z,1.73
2019-04-27T03:27:23.775Z,1.73
2019-04-27T03:29:52.252Z,1.70
2019-04-27T03:32:22.639Z,1.90
2019-04-27T03:34:52.428Z,1.90
2019-04-27T03:37:21.486Z,1.80
2019-04-27T03:39:50.019Z,2.00
2019-04-27T03:42:20.697Z,2.17
2019-04-27T03:44:50.254Z,2.60
2019-04-27T03:47:19.811Z,2.93
2019-04-27T03:49:50.742Z,2.90
2019-04-27T03:52:32.711Z,3.30
2019-04-27T03:55:05.632Z,3.40
2019-04-27T03:57:40.347Z,3.40
2019-04-27T04:00:10.519Z,3.40
2019-04-27T04:02:40.419Z,3.10
2019-04-27T04:05:09.957Z,3.57
2019-04-27T04:07:41.767Z,3.47
2019-04-27T04:10:10.826Z,3.67
2019-04-27T04:12:55.951Z,3.60
2019-04-27T04:15:24.840Z,3.30
2019-04-27T04:17:53.295Z,3.20
2019-04-27T04:20:21.729Z,3.50
2019-04-27T04:22:51.494Z,3.70
2019-04-27T04:25:20.115Z,3.30
2019-04-27T04:27:50.635Z,3.00
2019-04-27T04:30:20.029Z,3.77
2019-04-27T04:32:51.639Z,3.80
2019-04-27T04:35:23.532Z,3.60
2019-04-27T04:37:52.745Z,3.93
2019-04-27T04:40:30.719Z,3.50
2019-04-27T04:43:03.270Z,3.27
2019-04-27T04:45:35.880Z,4.07
2019-04-27T04:48:06.163Z,3.40
2019-04-27T04:50:35.237Z,3.23
2019-04-27T04:53:03.784Z,3.37
2019-04-27T04:55:32.224Z,3.60
2019-04-27T04:58:00.622Z,3.33
2019-04-27T05:00:29.832Z,3.70
2019-04-27T05:02:59.529Z,3.13
2019-04-27T05:05:29.324Z,3.30
2019-04-27T05:08:00.395Z,3.53
2019-04-27T05:10:28.845Z,3.60
2019-04-27T05:12:59.031Z,3.70
2019-04-27T05:15:29.220Z,4.07
2019-04-27T05:17:59.123Z,3.73
2019-04-27T05:20:39.704Z,3.60
2019-04-27T05:23:09.640Z,2.80
2019-04-27T05:25:39.049Z,2.90
2019-04-27T05:28:09.569Z,3.10
2019-04-27T05:30:39.066Z,2.97
2019-04-27T05:33:08.918Z,3.00
2019-04-27T05:35:40.616Z,3.10
2019-04-27T05:38:13.187Z,3.20
2019-04-27T05:40:39.852Z,3.00
2019-04-27T05:43:09.303Z,2.70
2019-04-27T05:46:12.416Z,2.70
2019-04-27T05:48:41.013Z,2.20
2019-04-27T05:51:09.407Z,2.57
2019-04-27T05:53:39.449Z,2.53
2019-04-27T05:56:09.394Z,2.20
2019-04-27T05:58:39.217Z,2.10
2019-04-27T06:01:09.586Z,2.33
2019-04-27T06:03:39.683Z,2.43
2019-04-27T06:06:09.743Z,2.30
2019-04-27T06:08:39.325Z,2.10
2019-04-27T06:11:09.388Z,2.00
2019-04-27T06:13:39.252Z,1.80
2019-04-27T06:16:09.455Z,1.73
2019-04-27T06:18:39.182Z,2.03
2019-04-27T06:21:09.595Z,2.20
2019-04-27T06:23:39.027Z,2.13
2019-04-27T06:26:11.428Z,2.27
2019-04-27T06:28:39.748Z,2.33
2019-04-27T06:31:08.793Z,2.00
2019-04-27T06:33:39.026Z,2.10
2019-04-27T06:36:09.910Z,2.00
2019-04-27T06:38:39.355Z,2.10
2019-04-27T06:41:10.097Z,2.17
2019-04-27T06:43:40.443Z,2.10
2019-04-27T06:46:08.873Z,2.23
2019-04-27T06:48:37.287Z,2.10
2019-04-27T06:51:05.907Z,2.20
2019-04-27T06:53:34.427Z,2.20
2019-04-27T06:56:02.895Z,2.50
2019-04-27T06:58:32.795Z,2.10
2019-04-27T07:01:01.190Z,2.10
2019-04-27T07:03:29.630Z,2.00
2019-04-27T07:05:58.850Z,2.33
2019-04-27T07:08:30.580Z,2.40
2019-04-27T07:10:58.795Z,2.40
2019-04-27T07:13:29.151Z,2.57
2019-04-27T07:15:57.579Z,2.47
2019-04-27T07:18:26.166Z,2.33
2019-04-27T07:20:54.560Z,2.40
2019-04-27T07:23:24.456Z,2.30
2019-04-27T07:25:52.885Z,2.60
2019-04-27T07:28:21.274Z,2.40
2019-04-27T07:30:49.670Z,2.30
2019-04-27T07:33:18.659Z,2.00
2019-04-27T07:35:48.954Z,1.80
2019-04-27T07:38:19.064Z,1.90
2019-04-27T07:40:48.910Z,2.10
2019-04-27T07:43:21.472Z,2.03
2019-04-27T07:45:49.862Z,2.30
2019-04-27T07:48:18.873Z,2.10
2019-04-27T07:50:48.656Z,2.20
2019-04-27T07:53:17.210Z,2.40
2019-04-27T07:55:45.728Z,2.60
2019-04-27T07:58:14.159Z,2.40
2019-04-27T08:00:42.617Z,2.43
2019-04-27T08:03:11.080Z,2.57
2019-04-27T08:05:39.477Z,2.10
2019-04-27T08:08:08.955Z,2.47
2019-04-27T08:10:39.217Z,2.27
2019-04-27T08:13:09.487Z,2.20
2019-04-27T08:15:39.514Z,2.23
2019-04-27T08:18:08.983Z,2.50
2019-04-27T08:20:39.076Z,4.17
2019-04-27T08:23:09.516Z,2.37
2019-04-27T08:25:39.202Z,2.10
2019-04-27T08:28:12.151Z,2.17
2019-04-27T08:30:42.173Z,2.80
2019-04-27T08:33:11.908Z,2.20
2019-04-27T08:35:40.695Z,2.50
2019-04-27T08:38:09.242Z,2.50
2019-04-27T08:40:39.365Z,2.50
2019-04-27T08:43:09.188Z,2.67
2019-04-27T08:45:39.194Z,2.70
2019-04-27T08:48:09.346Z,2.40
2019-04-27T08:50:41.670Z,2.23
2019-04-27T08:53:11.170Z,2.30
2019-04-27T08:55:40.006Z,2.20
2019-04-27T08:58:10.082Z,2.10
2019-04-27T09:00:39.161Z,1.97
2019-04-27T09:03:09.347Z,2.00
2019-04-27T09:05:39.011Z,2.00
2019-04-27T09:08:18.953Z,2.00
2019-04-27T09:10:52.339Z,1.87
2019-04-27T09:13:29.300Z,1.50
2019-04-27T09:16:15.567Z,1.70
2019-04-27T09:18:44.042Z,1.50
2019-04-27T09:21:12.426Z,1.40
2019-04-27T09:23:40.824Z,1.27
2019-04-27T09:26:11.097Z,1.23
2019-04-27T09:28:39.584Z,1.60
2019-04-27T09:31:09.190Z,1.37
2019-04-27T09:33:38.020Z,1.20
2019-04-27T09:36:06.489Z,1.30
2019-04-27T09:38:35.791Z,1.00
2019-04-27T09:41:04.592Z,1.67
2019-04-27T09:43:32.988Z,1.20
2019-04-27T09:46:01.389Z,1.00
2019-04-27T09:48:29.813Z,1.30
2019-04-27T09:50:58.212Z,0.60
2019-04-27T09:53:27.019Z,0.67
2019-04-27T09:55:55.765Z,0.70
2019-04-27T09:58:25.719Z,1.00
2019-04-27T10:00:54.272Z,1.10
2019-04-27T10:03:22.813Z,0.90
2019-04-27T10:05:51.199Z,1.80
2019-04-27T10:08:19.594Z,2.10
2019-04-27T10:10:48.148Z,1.30
2019-04-27T10:13:16.602Z,3.47
2019-04-27T10:15:45.927Z,4.90
2019-04-27T10:18:16.319Z,3.33
2019-04-27T10:20:56.981Z,6.03
2019-04-27T10:23:14.968Z,5.43
2019-04-27T10:25:43.432Z,3.50
2019-04-27T10:28:11.824Z,3.20
2019-04-27T10:30:40.225Z,2.67
2019-04-27T10:33:08.752Z,1.00
2019-04-27T10:35:37.156Z,0.67
2019-04-27T10:38:05.556Z,0.80
2019-04-27T10:40:34.001Z,0.70
2019-04-27T10:43:02.430Z,0.50
2019-04-27T10:45:30.830Z,0.60
2019-04-27T10:47:59.404Z,0.67
2019-04-27T10:50:27.869Z,0.50
2019-04-27T10:52:59.105Z,0.60
2019-04-27T10:55:26.810Z,0.50
2019-04-27T10:57:55.204Z,0.63
2019-04-27T11:00:37.686Z,0.53
2019-04-27T11:03:06.606Z,0.47
2019-04-27T11:05:52.821Z,0.60
2019-04-27T11:08:21.231Z,0.60
2019-04-27T11:10:49.626Z,0.30
2019-04-27T11:13:18.056Z,0.50
2019-04-27T11:15:46.453Z,0.60
2019-04-27T11:18:16.524Z,0.40
2019-04-27T11:20:46.315Z,0.60
2019-04-27T11:23:16.415Z,0.37
2019-04-27T11:25:46.672Z,0.67
2019-04-27T11:28:15.811Z,0.70
2019-04-27T11:30:44.232Z,0.77
2019-04-27T11:33:12.629Z,0.87
2019-04-27T11:35:46.975Z,0.53
2019-04-27T11:38:16.727Z,0.40
2019-04-27T11:40:46.613Z,0.60
2019-04-27T11:43:16.112Z,0.43
2019-04-27T11:45:45.754Z,0.90
2019-04-27T11:48:16.046Z,0.93
2019-04-27T11:50:45.863Z,0.40
2019-04-27T11:53:22.639Z,0.53
2019-04-27T11:55:45.218Z,0.70
2019-04-27T11:58:13.872Z,1.00
2019-04-27T12:00:42.339Z,0.70
2019-04-27T12:03:10.819Z,0.70
2019-04-27T12:05:39.656Z,1.20
2019-04-27T12:08:08.058Z,0.90
2019-04-27T12:10:36.532Z,0.47
2019-04-27T12:13:05.446Z,0.77
2019-04-27T12:15:36.205Z,1.67
2019-04-27T12:18:08.951Z,0.63
2019-04-27T12:20:35.913Z,0.63
2019-04-27T12:23:06.347Z,0.80
2019-04-27T12:25:37.048Z,1.90
2019-04-27T12:28:16.159Z,1.00
2019-04-27T12:30:49.889Z,0.60
2019-04-27T12:33:18.293Z,2.87
2019-04-27T12:35:48.354Z,1.67
2019-04-27T12:38:16.827Z,2.93
2019-04-27T12:40:46.559Z,1.50
2019-04-27T12:43:15.340Z,0.57
2019-04-27T12:45:45.727Z,0.60
2019-04-27T12:48:14.071Z,0.60
2019-04-27T12:50:42.829Z,1.20
2019-04-27T12:53:21.857Z,1.37
2019-04-27T12:55:56.416Z,1.70
2019-04-27T12:58:32.619Z,1.80
2019-04-27T13:01:02.705Z,1.30
2019-04-27T13:03:31.169Z,1.90
2019-04-27T13:05:59.567Z,2.20
2019-04-27T13:08:28.106Z,1.70
2019-04-27T13:10:57.392Z,1.40
2019-04-27T13:13:26.656Z,0.70
2019-04-27T13:15:56.321Z,0.47
2019-04-27T13:18:25.840Z,0.50
2019-04-27T13:20:54.323Z,0.60
2019-04-27T13:23:22.889Z,0.83
2019-04-27T13:25:51.291Z,1.00
2019-04-27T13:28:19.689Z,0.60
2019-04-27T13:30:48.180Z,1.00
2019-04-27T13:33:17.520Z,0.90
2019-04-27T13:35:45.961Z,1.20
2019-04-27T13:38:16.165Z,1.10
2019-04-27T13:40:46.349Z,1.13
2019-04-27T13:43:19.389Z,2.90
2019-04-27T13:45:49.436Z,1.10
2019-04-27T13:48:26.104Z,1.40
2019-04-27T13:50:57.236Z,1.90
2019-04-27T13:53:26.255Z,1.60
2019-04-27T13:55:56.801Z,1.90
2019-04-27T13:58:24.957Z,1.00
2019-04-27T14:00:53.352Z,0.87
2019-04-27T14:03:21.791Z,1.20
2019-04-27T14:05:50.194Z,2.30
2019-04-27T14:08:18.593Z,2.10
2019-04-27T14:10:47.206Z,1.07
2019-04-27T14:13:17.628Z,0.90
2019-04-27T14:15:45.713Z,1.30
2019-04-27T14:18:14.156Z,1.33
2019-04-27T14:20:45.380Z,1.33
2019-04-27T14:23:18.893Z,1.10
2019-04-27T14:25:47.250Z,0.80
2019-04-27T14:28:15.657Z,0.87
2019-04-27T14:30:44.170Z,1.00
2019-04-27T14:33:12.580Z,2.80
2019-04-27T14:35:40.979Z,2.10
2019-04-27T14:38:09.454Z,1.30
2019-04-27T14:40:39.216Z,2.13
2019-04-27T14:43:08.492Z,1.70
2019-04-27T14:45:38.301Z,1.80
2019-04-27T14:48:08.274Z,1.50
2019-04-27T14:50:38.643Z,1.80
2019-04-27T14:53:08.686Z,2.13
2019-04-27T14:55:38.751Z,1.67
2019-04-27T14:58:08.708Z,1.80
2019-04-27T15:00:38.443Z,2.27
2019-04-27T15:03:06.940Z,2.57
2019-04-27T15:05:35.341Z,2.00
2019-04-27T15:08:06.417Z,1.37
2019-04-27T15:10:36.099Z,1.60
2019-04-27T15:13:06.420Z,1.40
2019-04-27T15:15:35.401Z,1.37
2019-04-27T15:18:05.561Z,1.37
2019-04-27T15:20:38.968Z,1.50
2019-04-27T15:23:06.000Z,1.60
2019-04-27T15:25:42.348Z,1.40
2019-04-27T15:28:07.480Z,1.40
2019-04-27T15:30:39.661Z,1.13
2019-04-27T15:33:17.619Z,1.30
2019-04-27T15:35:50.381Z,1.33
2019-04-27T15:38:23.363Z,1.40
2019-04-27T15:40:54.581Z,1.30
2019-04-27T15:43:27.357Z,0.70
2019-04-27T15:45:57.622Z,0.70
2019-04-27T15:48:29.686Z,0.60
2019-04-27T15:50:55.215Z,0.80
2019-04-27T15:53:23.613Z,0.60
2019-04-27T15:55:53.647Z,0.50
2019-04-27T15:58:24.923Z,0.60
2019-04-27T16:00:56.528Z,0.80
2019-04-27T16:03:27.086Z,0.70
2019-04-27T16:05:53.259Z,0.40
2019-04-27T16:08:21.717Z,0.50
2019-04-27T16:10:50.113Z,0.60
2019-04-27T16:13:18.544Z,0.60
2019-04-27T16:15:48.178Z,1.23
2019-04-27T16:18:18.641Z,0.70
2019-04-27T16:20:48.517Z,0.97
2019-04-27T16:23:18.194Z,0.70
2019-04-27T16:25:50.692Z,0.80
2019-04-27T16:28:18.405Z,0.70
2019-04-27T16:30:50.620Z,0.50
2019-04-27T16:33:22.004Z,0.30
2019-04-27T16:35:48.810Z,0.40
2019-04-27T16:38:34.601Z,0.80
2019-04-27T16:41:03.318Z,1.00
2019-04-27T16:43:32.905Z,0.90
2019-04-27T16:46:04.248Z,0.70
2019-04-27T16:48:34.786Z,0.70
2019-04-27T16:51:02.766Z,0.60
2019-04-27T16:53:39.521Z,0.60
2019-04-27T16:56:06.318Z,0.50
2019-04-27T16:58:33.905Z,0.60
2019-04-27T17:01:06.815Z,0.70
2019-04-27T17:03:35.807Z,0.80
2019-04-27T17:08:33.170Z,1.23
2019-04-27T17:11:08.367Z,1.50
2019-04-27T17:12:41.266Z,0.83
2019-04-27T17:13:33.766Z,1.00
2019-04-27T17:16:16.223Z,1.10
2019-04-27T17:18:52.965Z,1.50
2019-04-27T17:21:23.326Z,1.03
2019-04-27T17:23:51.940Z,0.90
2019-04-27T17:26:23.406Z,1.03
2019-04-27T17:29:00.980Z,1.10
2019-04-27T17:31:31.011Z,1.23
2019-04-27T17:34:01.044Z,1.20
2019-04-27T17:36:29.678Z,1.23
2019-04-27T17:38:58.413Z,1.30
2019-04-27T17:41:28.316Z,1.30
2019-04-27T17:43:58.964Z,1.50
2019-04-27T17:46:28.214Z,1.30
2019-04-27T17:48:58.563Z,1.40
2019-04-27T17:51:28.545Z,1.70
2019-04-27T17:53:58.644Z,1.60
2019-04-27T17:56:35.411Z,1.60
2019-04-27T17:58:58.639Z,0.80
2019-04-27T18:01:30.116Z,1.30
2019-04-27T18:04:00.049Z,1.00
2019-04-27T18:06:29.582Z,1.30
2019-04-27T18:09:00.705Z,1.23
2019-04-27T18:11:28.756Z,1.20
2019-04-27T18:14:00.333Z,1.17
2019-04-27T18:16:30.884Z,1.40
2019-04-27T18:19:07.799Z,1.20
2019-04-27T18:21:31.070Z,1.20
2019-04-27T18:24:01.569Z,1.30
2019-04-27T18:26:47.017Z,1.43
2019-04-27T18:29:05.614Z,1.40
2019-04-27T18:31:34.077Z,1.60
2019-04-27T18:34:02.753Z,1.70
2019-04-27T18:36:31.149Z,1.60
2019-04-27T18:38:59.621Z,1.60
2019-04-27T18:41:28.819Z,1.90
2019-04-27T18:43:59.921Z,2.07
2019-04-27T18:46:28.280Z,1.83
2019-04-27T18:48:58.585Z,2.50
2019-04-27T18:51:28.844Z,1.87
2019-04-27T18:53:59.823Z,2.10
2019-04-27T18:56:29.109Z,2.10
2019-04-27T18:58:59.789Z,1.93
2019-04-27T19:01:28.948Z,1.53
2019-04-27T19:03:58.640Z,0.80
2019-04-27T19:06:28.891Z,0.90
2019-04-27T19:08:59.040Z,0.80
2019-04-27T19:11:29.098Z,0.70
2019-04-27T19:13:59.017Z,0.80
2019-04-27T19:16:29.200Z,0.50
2019-04-27T19:18:58.481Z,0.60
2019-04-27T19:21:28.855Z,0.80
2019-04-27T19:23:58.448Z,0.87
2019-04-27T19:26:31.665Z,0.70
2019-04-27T19:29:04.413Z,0.73
2019-04-27T19:31:34.525Z,1.20
2019-04-27T19:34:03.050Z,1.10
2019-04-27T19:36:31.521Z,0.97
2019-04-27T19:38:59.913Z,0.93
2019-04-27T19:41:28.917Z,0.80
2019-04-27T19:43:57.337Z,0.57
2019-04-27T19:46:25.729Z,0.60
2019-04-27T19:48:54.149Z,0.70
2019-04-27T19:51:22.554Z,0.50
2019-04-27T19:53:50.953Z,0.67
2019-04-27T19:56:21.372Z,0.43
2019-04-27T19:58:51.154Z,0.50
2019-04-27T20:01:21.193Z,0.20
2019-04-27T20:06:43.463Z,0.50
2019-04-27T20:09:16.375Z,0.63
2019-04-27T20:11:44.785Z,0.57
2019-04-27T20:14:13.192Z,0.50
2019-04-27T20:16:41.830Z,0.57
2019-04-27T20:19:11.560Z,0.60
2019-04-27T20:21:40.813Z,0.70
2019-04-27T20:24:09.393Z,0.83
2019-04-27T20:26:37.788Z,0.40
2019-04-27T20:29:06.185Z,0.63
2019-04-27T20:31:34.671Z,0.40
2019-04-27T20:34:03.070Z,0.47
2019-04-27T20:36:31.465Z,0.53
2019-04-27T20:39:01.277Z,0.20
2019-04-27T20:41:29.798Z,0.50
2019-04-27T20:43:58.229Z,0.40
2019-04-27T20:46:27.085Z,0.90
2019-04-27T20:48:55.497Z,0.40
2019-04-27T20:51:43.852Z,0.53
2019-04-27T20:54:12.171Z,0.80
2019-04-27T20:56:40.559Z,0.70
2019-04-27T20:59:10.680Z,0.40
2019-04-27T21:01:39.271Z,0.70
2019-04-27T21:04:07.673Z,0.63
2019-04-27T21:06:37.910Z,0.50
2019-04-27T21:09:11.319Z,0.57
2019-04-27T21:11:44.873Z,0.53
2019-04-27T21:14:15.624Z,0.70
2019-04-27T21:16:43.725Z,0.80
2019-04-27T21:19:12.348Z,0.60
2019-04-27T21:21:42.781Z,0.53
2019-04-27T21:24:11.151Z,0.50
2019-04-27T21:26:39.743Z,0.60
2019-04-27T21:29:08.140Z,0.73
2019-04-27T21:31:36.531Z,0.70
2019-04-27T21:34:05.019Z,0.70
2019-04-27T21:36:33.414Z,0.73
2019-04-27T21:39:01.823Z,0.60
2019-04-27T21:41:31.212Z,0.70
2019-04-27T21:44:01.304Z,0.70
2019-04-27T21:46:31.658Z,0.63
2019-04-27T21:49:00.029Z,1.00
2019-04-27T21:51:28.424Z,0.90
2019-04-27T21:53:58.471Z,0.57
2019-04-27T21:56:27.097Z,0.83
2019-04-27T21:58:55.473Z,0.63
2019-04-27T22:01:27.857Z,0.83
2019-04-27T22:03:56.484Z,0.80
2019-04-27T22:06:24.963Z,0.67
2019-04-27T22:08:53.439Z,0.63
2019-04-27T22:11:22.130Z,0.80
2019-04-27T22:13:51.174Z,0.80
2019-04-27T22:16:21.358Z,1.00
2019-04-27T22:18:51.713Z,0.70
2019-04-27T22:21:21.625Z,0.67
2019-04-27T22:23:54.592Z,0.70
2019-04-27T22:26:22.995Z,0.90
2019-04-27T22:28:52.090Z,0.80
2019-04-27T22:31:21.239Z,0.97
2019-04-27T22:33:52.563Z,0.80
2019-04-27T22:36:21.212Z,0.50
2019-04-27T22:38:51.521Z,0.90
2019-04-27T22:41:36.571Z,0.70
2019-04-27T22:44:06.778Z,0.90
2019-04-27T22:46:40.981Z,1.00
2019-04-27T22:49:10.960Z,0.60
2019-04-27T22:51:42.723Z,0.80
2019-04-27T22:54:11.542Z,0.77
2019-04-27T22:56:42.245Z,0.77
2019-04-27T22:59:12.407Z,0.90
2019-04-27T23:01:51.375Z,0.77
2019-04-27T23:04:24.630Z,1.00
2019-04-27T23:06:53.091Z,0.80
2019-04-27T23:09:21.897Z,0.70
2019-04-27T23:11:51.626Z,0.90
2019-04-27T23:14:21.209Z,0.67
2019-04-27T23:17:11.199Z,0.77
2019-04-27T23:19:40.885Z,0.97
2019-04-27T23:22:11.079Z,0.80
2019-04-27T23:24:41.376Z,0.93
2019-04-27T23:27:11.071Z,0.70
2019-04-27T23:29:41.670Z,1.00
2019-04-27T23:32:11.758Z,0.67
2019-04-27T23:34:41.916Z,0.90
2019-04-27T23:37:10.305Z,0.90
2019-04-27T23:39:38.725Z,0.73
2019-04-27T23:42:07.144Z,1.13
2019-04-27T23:44:35.526Z,0.70
2019-04-27T23:47:03.976Z,0.70
2019-04-27T23:49:32.477Z,0.70
2019-04-27T23:52:02.487Z,0.90
2019-04-27T23:54:31.165Z,0.90
2019-04-27T23:56:59.558Z,1.00
2019-04-27T23:59:27.951Z,0.80
